Latest METARs, TAFs and NOTAMs for LCLK


---------------------------------------------------------------------------
	(OBSERVATIONS)
LCLK 240400Z 01004KT CAVOK 24/14 Q1007 NOSIG=
LCLK 240330Z VRB01KT CAVOK 23/09 Q1007 NOSIG=
LCLK 240300Z 33005KT CAVOK 21/08 Q1007 NOSIG=
LCLK 240230Z 32007KT CAVOK 21/08 Q1007 NOSIG=
LCLK 240200Z 33005KT CAVOK 20/09 Q1006 NOSIG=
LCLK 240130Z 30003KT CAVOK 20/10 Q1006 NOSIG=
---------------------------------------------------------------------------
	(FC)
Sorry, FC For LCLK Not Found
---------------------------------------------------------------------------
	(TERMINAL AREA FORECAST)
AMD LCLK 240130Z 2401/2424 33005KT CAVOK PROB30 2400/2419 5000
    DU
    BECMG 2409/2412 19012KT
    BECMG 2415/2419 30008KT=
---------------------------------------------------------------------------
	(NOTAMS)


LCLK A0110/12 NEW HELIPAD FOR CYPRUS POLICE USE ONLY ESTABLISHED
    250 METERS NORTH OF THE ATC TOWER ENCLOSED BY THE FOLLOWING
    COORDINATES: 3452.502N03337.012E 3452.528N03337.013E 3452.518N03337.185E
    3452.465N03337.118E HOURS OF OPERATION: H24. 08 FEB 14:53
    2012 UNTIL PERM. CREATED: 08 FEB 15:02 2012

LCLK A0317/19 RWY 04/22 CLOSED DUE TO WIP. THU 2100-FRI 0500,
    07 NOV 21:00 2019 UNTIL 13 DEC 05:00 2019. CREATED: 05 MAR
    10:47 2019

LCLK A0318/19 RWY 04/22 CLOSED DUE TO WIP. TUE 2100-WED 0500,
    26 NOV 21:00 2019 UNTIL 18 DEC 05:00 2019. CREATED: 05 MAR
    10:49 2019

LCLK A0538/19 FOR FLIGHT PLANNING PURPOSES ALL DEPARTURES LCA
    RWY22 EXITING NICOSIA FIR VIA TOSKA, EVENO, TOMBI MUST ROUTE:
    1. PAFOS 1W PHA DCT GENOS DCT TOSKA 2. PAFOS 1W PHA DCT GENOS
    DCT PEDER DCT EVENO 3. PAFOS 1W PHA DCT GENOS DCT PEDER A16/UA16
    TOMBI ALL OTHER SIDS ONLY AVAILABLE BY ATC. 09 APR 06:37
    2019 UNTIL PERM. CREATED: 09 APR 06:40 2019

LCLK A0553/19 RWY 22/04 CLOSED DUE TO AIRPORT EMERGENCY RESPONSE
    EXERCISE. 24 MAY 05:55 2019 UNTIL 24 MAY 06:40 2019. CREATED:
    10 APR 16:32 2019

LCLK A0577/19 FOR FLIGHT PLANNING PURPOSES ALL ARRIVALS TO LCA
    ENTERING NICOSIA FIR VIA TOSKA, EVENO, TOMBI MUST ROUTE VIA
    BONEK FOR THE BONEK1A OR THE BONEK1R ARRIVAL TO RWY22. ALL
    OTHER STARS AVAILABLE BY ATC. 13 APR 19:53 2019 UNTIL PERM.
    CREATED: 13 APR 19:55 2019

LCLK A0582/19 A GROUP OF TWO (2) CRANES ERECTED AT LARNAKA PORT
    AT THE FOLLOWING POSITIONS: 345529.26N0333840.08E HEIGHT
    84M AT THE TOP 86.3M AMSL LIGHTED 345525.08N0333830.27E HEIGHT
    84M AT THE TOP 86.3M AMSL LIGHTED. 16 APR 08:19 2019 UNTIL
    PERM. CREATED: 16 APR 08:24 2019

LCLK A0584/19 TRIGGER NOTAM - PERM AIRAC AIP AMDT 001/19 WEF
    23 MAY 2019. THE FOLLOWING SECTIONS OF AD WERE AMENDED: FRICTION
    MEASURING DEVICES, AD 1.1 STATUS OF CERTIFICATION OF AERODROMES,
    AD 1.5. 23 MAY 00:00 2019 UNTIL 05 JUN 23:59 2019. CREATED:
    16 APR 11:51 2019

LCLK A0618/19 INTL VFR FLIGHTS ARRIVING/DEPARTING LCPH ARE NOT
    PERMITTED TO ENTER LCLK CONTROL ZONE. PILOTS ARE REQUESTED
    TO FILE FLIGHT PLANS VIA POINT APLON. 20 APR 05:58 2019 UNTIL
    20 JUL 08:00 2019 ESTIMATED. CREATED: 20 APR 06:00 2019

LCLK A0694/12 OBSTACLE ERECTED TYPE: ANTENNA COORDINATES: 345228.69N0333700.25E
    ELEVATION AT TOP: 39.5M AMSL MARKED AND LIGHTED (RED. 16
    AUG 18:42 2012 UNTIL PERM. CREATED: 16 AUG 18:46 2012

LCLK A0695/12 OBSTACLE ERECTED TYPE: WIND MEASUREMENT MAST COORDINATES:
    345227N 0333110E HEIGHT : 50M AGL ELAVATION AT TOP : 240M
    AMSL MARKED AND LIGHTED. 16 AUG 18:48 2012 UNTIL PERM. CREATED:
    16 AUG 18:50 2012

LCLK A0711/19 VDGS FOR STANDS 41-48A ARE U/S. 07 MAY 11:40 2019
    UNTIL 30 JUN 15:00 2019. CREATED: 07 MAY 11:41 2019

LCLK A0762/15 OBSTACLE ERECTED NAME: LC-0005CR TYPE: CRANE COORDINATES:
    345554.27N0333814.51E HEIGHT: 65.5M AGL ELEVATION AT TOP:
    71M AMSL MARKED AND LIGHTED. 24 JUN 07:35 2015 UNTIL PERM.
    CREATED: 24 JUN 07:40 2015

LCLK A1180/14 OBSTACLE ERECTED TYPE: ANTENNA COORDINATES: 345330.64N0333816.55E
    HEIGHT:28.69M AGL ELEVATION AT TOP: 31.25M AMSL MARKED AND
    LIGHTED (RED. 13 NOV 05:00 2014 UNTIL PERM. CREATED: 11 NOV
    11:52 2014

LCLK A1627/17 OBSTACLE ERECTED TYPE: CRANE COORDINATES: 345406.34N0333812.87E
    HEIGHT: 48M AGL ELEVATION AT TOP: 50M AMSL MARKED,LIGHTED.
    10 NOV 09:45 2017 UNTIL PERM. CREATED: 10 NOV 09:47 2017

---------------------------------------------------------------------------